Time;durP1;ratioP1;P1;durP2;ratioP2;P2;SDS_P1;SDS_P2;PMS_P1;PMS_P2;Temp;Humidity;BMP_temperature;BMP_pressure;BME280_temperature;BME280_humidity;BME280_pressure;Samples;Min_cycle;Max_cycle;Signal;HPM_P1;HPM_P2
2020/12/03 00:01:52;;;;;;;23.80;13.30;;;5.90;99.90;;;;;;4174622;28;20034;-72
2020/12/03 00:04:00;;;;;;;22.48;13.25;;;5.90;99.90;;;;;;4176349;28;20059;-72
2020/12/03 00:06:20;;;;;;;20.40;12.25;;;5.90;99.90;;;;;;4173560;28;20272;-72
2020/12/03 00:08:22;;;;;;;24.30;13.65;;;6.00;99.90;;;;;;4175620;28;20021;-72
2020/12/03 00:10:24;;;;;;;21.65;13.20;;;6.00;99.90;;;;;;4176043;28;20078;-72
2020/12/03 00:12:24;;;;;;;25.63;13.35;;;5.90;99.90;;;;;;4174077;28;20029;-72
2020/12/03 00:14:26;;;;;;;20.92;13.27;;;6.00;99.90;;;;;;4176296;28;20031;-71
2020/12/03 00:16:29;;;;;;;22.70;13.13;;;5.90;99.90;;;;;;4176107;28;20041;-71
2020/12/03 00:18:32;;;;;;;23.05;12.55;;;5.90;99.90;;;;;;4157368;28;20128;-71
2020/12/03 00:20:34;;;;;;;22.35;12.70;;;6.00;99.90;;;;;;4175781;28;20043;-71
2020/12/03 00:22:34;;;;;;;24.20;13.60;;;6.00;99.90;;;;;;4173567;28;20572;-71
2020/12/03 00:24:35;;;;;;;25.52;14.45;;;6.00;99.90;;;;;;4157806;28;20113;-71
2020/12/03 00:26:36;;;;;;;21.75;12.65;;;5.90;99.90;;;;;;4190732;28;20028;-71
2020/12/03 00:28:40;;;;;;;26.00;14.03;;;5.90;99.90;;;;;;4164464;28;20536;-71
2020/12/03 00:30:45;;;;;;;20.05;12.60;;;5.90;99.90;;;;;;4179811;28;20029;-71
2020/12/03 00:32:47;;;;;;;20.38;12.55;;;5.90;99.90;;;;;;4174240;28;20029;-71
2020/12/03 00:34:49;;;;;;;21.20;12.10;;;5.90;99.90;;;;;;4174038;28;20069;-71
2020/12/03 00:36:49;;;;;;;17.80;11.10;;;5.90;99.90;;;;;;4174309;28;20037;-71
2020/12/03 00:38:50;;;;;;;20.88;12.18;;;5.90;99.90;;;;;;4173563;28;20040;-71
2020/12/03 00:40:52;;;;;;;19.38;12.40;;;5.90;99.90;;;;;;4175083;28;20029;-71
2020/12/03 00:42:55;;;;;;;20.83;11.73;;;5.90;99.90;;;;;;4173819;28;20056;-72
2020/12/03 00:44:55;;;;;;;18.77;11.25;;;5.90;99.90;;;;;;4173753;28;20070;-72
2020/12/03 00:46:56;;;;;;;19.95;12.48;;;5.90;99.90;;;;;;4173778;28;20028;-72
2020/12/03 00:49:05;;;;;;;20.27;12.15;;;5.90;99.90;;;;;;4174490;28;20041;-71
2020/12/03 00:51:11;;;;;;;18.33;11.30;;;6.00;99.90;;;;;;4174567;28;20500;-71
2020/12/03 00:53:12;;;;;;;20.75;12.25;;;6.00;99.90;;;;;;4174731;28;20504;-71
2020/12/03 00:55:13;;;;;;;21.20;12.63;;;6.00;99.90;;;;;;4173294;28;20033;-71
2020/12/03 00:57:13;;;;;;;24.17;13.07;;;5.90;99.90;;;;;;4173621;28;20108;-71
2020/12/03 00:59:14;;;;;;;19.30;11.60;;;6.00;99.90;;;;;;4157209;28;20492;-71
2020/12/03 01:01:16;;;;;;;20.17;12.35;;;5.90;99.90;;;;;;4165072;28;20539;-71
2020/12/03 01:03:16;;;;;;;22.50;13.07;;;5.90;99.90;;;;;;4172933;28;20025;-71
2020/12/03 01:05:18;;;;;;;22.17;12.88;;;5.90;99.90;;;;;;4175344;28;20048;-71
2020/12/03 01:07:18;;;;;;;20.55;12.98;;;5.90;99.90;;;;;;4173321;28;20060;-71
2020/12/03 01:09:19;;;;;;;20.13;12.10;;;5.90;99.90;;;;;;4174027;28;20029;-71
2020/12/03 01:11:22;;;;;;;20.80;11.85;;;5.90;99.90;;;;;;4175015;28;20029;-71
2020/12/03 01:13:23;;;;;;;22.48;12.30;;;5.90;99.90;;;;;;4173814;28;20033;-71
2020/12/03 01:15:24;;;;;;;20.52;12.15;;;6.00;99.90;;;;;;4165759;28;20053;-71
2020/12/03 01:17:25;;;;;;;21.17;12.50;;;6.00;99.90;;;;;;4156946;28;20489;-71
2020/12/03 01:19:26;;;;;;;24.07;12.47;;;6.00;99.90;;;;;;4173310;28;20426;-71
2020/12/03 01:21:26;;;;;;;18.98;12.15;;;5.90;99.90;;;;;;4170499;28;20086;-71
2020/12/03 01:23:27;;;;;;;22.00;12.45;;;5.90;99.90;;;;;;4177355;28;20662;-71
2020/12/03 01:25:29;;;;;;;21.80;13.05;;;5.90;99.90;;;;;;4176849;28;20045;-71
2020/12/03 01:27:30;;;;;;;22.58;12.20;;;5.90;99.90;;;;;;4176956;28;20025;-71
2020/12/03 01:29:30;;;;;;;21.58;12.45;;;5.90;99.90;;;;;;4176617;28;20033;-71
2020/12/03 01:31:31;;;;;;;20.77;12.55;;;5.90;99.90;;;;;;4176840;28;20059;-71
2020/12/03 01:33:31;;;;;;;22.35;12.25;;;5.90;99.90;;;;;;4178513;28;20063;-71
2020/12/03 01:35:33;;;;;;;21.05;11.40;;;5.90;99.90;;;;;;4176711;28;20056;-71
2020/12/03 01:37:34;;;;;;;21.17;12.10;;;5.90;99.90;;;;;;4178208;28;20045;-71
2020/12/03 01:39:35;;;;;;;18.58;11.43;;;5.90;99.90;;;;;;4177225;28;20511;-71
2020/12/03 01:41:36;;;;;;;21.33;12.68;;;5.90;99.90;;;;;;4159972;28;20030;-71
2020/12/03 01:43:43;;;;;;;21.88;12.48;;;5.90;99.90;;;;;;4177250;28;20488;-71
2020/12/03 01:45:50;;;;;;;23.77;13.43;;;5.90;99.90;;;;;;4177912;28;20237;-71
2020/12/03 01:47:51;;;;;;;18.95;11.45;;;5.90;99.90;;;;;;4176390;28;20107;-72
2020/12/03 01:49:52;;;;;;;20.10;11.73;;;5.90;99.90;;;;;;4176383;28;20033;-71
2020/12/03 01:51:55;;;;;;;21.38;12.27;;;5.90;99.90;;;;;;4177837;28;20044;-71
2020/12/03 01:53:59;;;;;;;23.48;12.40;;;5.90;99.90;;;;;;4177086;28;20037;-71
2020/12/03 01:56:05;;;;;;;21.55;12.30;;;5.90;99.90;;;;;;4177010;28;20040;-72
2020/12/03 01:58:05;;;;;;;22.13;12.73;;;5.80;99.90;;;;;;4178023;28;20041;-71
2020/12/03 02:00:06;;;;;;;22.38;12.52;;;5.80;99.90;;;;;;4178705;28;20067;-71
2020/12/03 02:02:09;;;;;;;20.58;12.13;;;5.80;99.90;;;;;;4160080;28;20034;-71
2020/12/03 02:04:10;;;;;;;19.52;11.35;;;5.80;99.90;;;;;;4176419;28;20137;-71
2020/12/03 02:06:11;;;;;;;20.58;12.32;;;5.80;99.90;;;;;;4177680;28;20116;-71
2020/12/03 02:08:11;;;;;;;19.88;12.65;;;5.80;99.90;;;;;;4177656;28;20040;-71
2020/12/03 02:10:13;;;;;;;22.17;12.45;;;5.80;99.90;;;;;;4160027;28;20037;-71
2020/12/03 02:12:17;;;;;;;18.13;10.77;;;5.80;99.90;;;;;;4177599;28;20396;-71
2020/12/03 02:14:18;;;;;;;23.27;12.00;;;5.80;99.90;;;;;;4149963;28;20029;-71
2020/12/03 02:16:21;;;;;;;21.73;12.45;;;5.80;99.90;;;;;;4178115;28;20468;-71
2020/12/03 02:18:21;;;;;;;20.92;12.27;;;5.80;99.90;;;;;;4176741;28;20033;-71
2020/12/03 02:20:22;;;;;;;20.83;12.23;;;5.80;99.90;;;;;;4177454;28;20100;-71
2020/12/03 02:22:23;;;;;;;21.85;12.27;;;5.80;99.90;;;;;;4169068;28;20027;-71
2020/12/03 02:24:24;;;;;;;22.80;12.88;;;5.80;99.90;;;;;;4177068;28;20544;-71
2020/12/03 02:26:24;;;;;;;23.48;12.52;;;5.80;99.90;;;;;;4177177;28;20037;-71
2020/12/03 02:28:25;;;;;;;21.13;12.65;;;5.80;99.90;;;;;;4175512;28;20025;-71
2020/12/03 02:30:25;;;;;;;19.50;11.57;;;5.80;99.90;;;;;;4177454;28;20025;-71
2020/12/03 02:32:26;;;;;;;19.35;12.13;;;5.80;99.90;;;;;;4175666;28;20345;-71
2020/12/03 02:34:27;;;;;;;18.35;11.60;;;5.80;99.90;;;;;;4176047;28;20546;-71
2020/12/03 02:36:27;;;;;;;20.70;12.23;;;5.80;99.90;;;;;;4159089;28;20049;-71
2020/12/03 02:38:29;;;;;;;23.00;12.55;;;5.80;99.90;;;;;;4176039;28;20112;-71
2020/12/03 02:40:33;;;;;;;21.60;13.13;;;5.80;99.90;;;;;;4176075;28;20029;-71
2020/12/03 02:42:33;;;;;;;22.90;13.13;;;5.80;99.90;;;;;;4177190;28;20043;-71
2020/12/03 02:44:37;;;;;;;21.40;12.57;;;5.80;99.90;;;;;;4177576;28;20045;-71
2020/12/03 02:46:38;;;;;;;23.80;13.02;;;5.80;99.90;;;;;;4176628;28;20045;-71
2020/12/03 02:48:39;;;;;;;23.55;12.80;;;5.80;99.90;;;;;;4175812;28;20036;-71
2020/12/03 02:50:39;;;;;;;22.60;12.00;;;5.80;99.90;;;;;;4177279;28;20041;-71
2020/12/03 02:52:40;;;;;;;22.38;12.38;;;5.80;99.90;;;;;;4175578;28;20184;-71
2020/12/03 02:54:41;;;;;;;23.58;13.40;;;5.80;99.90;;;;;;4177525;28;20048;-71
2020/12/03 02:56:42;;;;;;;25.27;12.80;;;5.80;99.90;;;;;;4176152;28;20044;-71
2020/12/03 02:58:43;;;;;;;20.25;11.88;;;5.80;99.90;;;;;;4167585;28;20302;-71
2020/12/03 03:00:43;;;;;;;20.77;12.00;;;5.80;99.90;;;;;;4177527;28;20448;-71
2020/12/03 03:02:44;;;;;;;25.38;13.82;;;5.80;99.90;;;;;;4175646;28;20116;-72
2020/12/03 03:04:44;;;;;;;19.27;12.00;;;5.70;99.90;;;;;;4175376;28;20037;-72
2020/12/03 03:06:45;;;;;;;20.98;12.30;;;5.80;99.90;;;;;;4175288;28;20091;-72
2020/12/03 03:08:46;;;;;;;20.33;12.30;;;5.80;99.90;;;;;;4174821;28;20033;-72
2020/12/03 03:10:46;;;;;;;21.70;11.18;;;5.80;99.90;;;;;;4177305;28;20323;-72
2020/12/03 03:12:50;;;;;;;22.27;13.60;;;5.90;99.90;;;;;;4177543;28;20033;-71
2020/12/03 03:14:53;;;;;;;20.85;11.63;;;5.90;99.90;;;;;;4176848;28;20028;-71
2020/12/03 03:16:54;;;;;;;19.83;11.95;;;5.90;99.90;;;;;;4177251;28;20036;-71
2020/12/03 03:18:54;;;;;;;23.70;13.52;;;5.90;99.90;;;;;;4176121;28;20523;-71
2020/12/03 03:20:55;;;;;;;21.70;12.50;;;5.90;99.90;;;;;;4177248;28;20485;-71
2020/12/03 03:22:55;;;;;;;20.30;12.02;;;6.00;99.90;;;;;;4176369;28;20481;-71
2020/12/03 03:24:56;;;;;;;26.52;13.25;;;5.90;99.90;;;;;;4177096;28;20392;-71
2020/12/03 03:26:57;;;;;;;23.20;13.45;;;6.00;99.90;;;;;;4176267;28;20112;-72
2020/12/03 03:28:57;;;;;;;20.38;11.93;;;6.00;99.90;;;;;;4177682;28;20037;-71
2020/12/03 03:30:58;;;;;;;22.98;12.40;;;6.00;99.90;;;;;;4176757;28;20495;-71
2020/12/03 03:32:59;;;;;;;21.88;13.02;;;6.00;99.90;;;;;;4177185;28;20048;-71
2020/12/03 03:34:59;;;;;;;24.92;13.90;;;6.00;99.90;;;;;;4177113;28;20060;-71
2020/12/03 03:37:00;;;;;;;22.13;13.07;;;6.00;99.90;;;;;;4158692;28;20091;-72
2020/12/03 03:39:05;;;;;;;18.80;11.50;;;6.00;99.90;;;;;;4172189;28;20037;-71
2020/12/03 03:41:06;;;;;;;23.30;12.80;;;6.00;99.90;;;;;;4174296;28;20455;-71
2020/12/03 03:43:06;;;;;;;25.92;13.85;;;6.00;99.90;;;;;;4158822;28;20040;-71
2020/12/03 03:45:07;;;;;;;25.77;14.32;;;6.00;99.90;;;;;;4174879;28;20039;-71
2020/12/03 03:47:10;;;;;;;21.45;13.25;;;6.00;99.90;;;;;;4176632;28;20112;-71
2020/12/03 03:49:10;;;;;;;22.42;12.52;;;6.00;99.90;;;;;;4176468;28;20033;-71
2020/12/03 03:51:11;;;;;;;22.63;12.98;;;6.00;99.90;;;;;;4175591;28;20040;-71
2020/12/03 03:53:12;;;;;;;22.02;11.80;;;6.00;99.90;;;;;;4176026;28;20503;-71
2020/12/03 03:55:13;;;;;;;19.33;11.85;;;6.00;99.90;;;;;;4158720;28;20445;-71
2020/12/03 03:57:13;;;;;;;20.85;12.45;;;6.00;99.90;;;;;;4190387;28;20041;-71
2020/12/03 03:59:14;;;;;;;23.30;13.60;;;6.00;99.90;;;;;;4174838;28;20040;-71
2020/12/03 04:01:14;;;;;;;23.45;13.30;;;6.00;99.90;;;;;;4175409;28;20063;-71
2020/12/03 04:03:20;;;;;;;22.00;12.73;;;6.00;99.90;;;;;;4175260;28;20029;-71
2020/12/03 04:05:20;;;;;;;21.38;12.73;;;6.00;99.90;;;;;;4173921;28;20035;-71
2020/12/03 04:07:21;;;;;;;24.50;13.82;;;6.00;99.90;;;;;;4176180;28;20374;-71
2020/12/03 04:09:21;;;;;;;23.80;13.70;;;6.00;99.90;;;;;;4175487;28;20111;-71
2020/12/03 04:11:22;;;;;;;19.08;11.57;;;6.00;99.90;;;;;;4174077;28;20048;-71
2020/12/03 04:13:24;;;;;;;24.55;13.10;;;6.00;99.90;;;;;;4157372;28;20060;-71
2020/12/03 04:15:25;;;;;;;21.77;12.50;;;6.00;99.90;;;;;;4173361;28;20500;-71
2020/12/03 04:17:27;;;;;;;20.25;12.02;;;5.90;99.90;;;;;;4174737;28;20037;-72
2020/12/03 04:19:29;;;;;;;20.95;11.82;;;6.00;99.90;;;;;;4166520;28;20037;-71
2020/12/03 04:21:29;;;;;;;19.08;12.00;;;6.00;99.90;;;;;;4175675;28;20416;-71
2020/12/03 04:23:30;;;;;;;19.92;11.32;;;5.90;99.90;;;;;;4174875;28;20175;-71
2020/12/03 04:25:31;;;;;;;22.17;12.32;;;6.00;99.90;;;;;;4174352;28;20118;-72
2020/12/03 04:27:31;;;;;;;19.45;11.45;;;6.00;99.90;;;;;;4174061;28;20045;-71
2020/12/03 04:29:32;;;;;;;20.98;12.20;;;6.00;99.90;;;;;;4175764;28;20036;-71
2020/12/03 04:31:33;;;;;;;21.85;12.27;;;6.00;99.90;;;;;;4175458;28;20100;-71
2020/12/03 04:33:33;;;;;;;20.35;12.20;;;6.00;99.90;;;;;;4174198;28;20036;-71
2020/12/03 04:35:37;;;;;;;21.40;12.68;;;6.00;99.90;;;;;;4175481;28;20033;-71
2020/12/03 04:37:38;;;;;;;25.70;13.65;;;6.00;99.90;;;;;;4171719;28;20041;-71
2020/12/03 04:39:39;;;;;;;22.08;12.73;;;6.00;99.90;;;;;;4171506;28;20074;-71
2020/12/03 04:41:40;;;;;;;21.80;12.63;;;6.00;99.90;;;;;;4163863;28;20028;-71
2020/12/03 04:43:45;;;;;;;20.73;12.20;;;6.00;99.90;;;;;;4163194;28;20052;-71
2020/12/03 04:45:52;;;;;;;19.17;11.90;;;6.00;99.90;;;;;;4175186;28;20049;-71
2020/12/03 04:48:04;;;;;;;18.75;11.60;;;6.00;99.90;;;;;;4175228;28;20029;-71
2020/12/03 04:50:30;;;;;;;20.02;11.63;;;6.00;99.90;;;;;;4175762;28;20195;-71
2020/12/03 04:53:18;;;;;;;20.50;12.07;;;6.00;99.90;;;;;;4173863;28;20040;-71
2020/12/03 04:55:33;;;;;;;21.95;12.77;;;6.00;99.90;;;;;;4135106;28;20433;-71
2020/12/03 04:58:16;;;;;;;19.40;12.00;;;6.00;99.90;;;;;;4174509;28;20098;-71
2020/12/03 05:00:52;;;;;;;19.95;11.32;;;6.00;99.90;;;;;;4173545;28;20261;-71
2020/12/03 05:03:18;;;;;;;19.88;12.05;;;6.00;99.90;;;;;;4170910;28;20025;-71
2020/12/03 05:05:53;;;;;;;22.52;12.73;;;6.00;99.90;;;;;;4173925;28;20496;-72
2020/12/03 05:08:09;;;;;;;20.15;11.73;;;6.00;99.90;;;;;;4172926;28;20045;-71
2020/12/03 05:10:25;;;;;;;20.30;12.20;;;6.00;99.90;;;;;;4173546;28;20032;-71
2020/12/03 05:12:32;;;;;;;19.23;11.68;;;6.00;99.90;;;;;;4174094;28;20033;-71
2020/12/03 05:14:35;;;;;;;18.23;11.38;;;6.00;99.90;;;;;;4175280;28;20029;-71
2020/12/03 05:16:45;;;;;;;18.65;11.15;;;6.00;99.90;;;;;;4173355;28;20484;-71
2020/12/03 05:19:00;;;;;;;20.15;12.00;;;6.00;99.90;;;;;;4173497;28;20071;-72
2020/12/03 05:21:03;;;;;;;23.50;12.32;;;6.00;99.90;;;;;;4173061;28;20036;-72
2020/12/03 05:23:14;;;;;;;19.60;11.73;;;6.10;99.90;;;;;;4173916;28;20112;-72
2020/12/03 05:25:16;;;;;;;18.05;10.80;;;6.10;99.90;;;;;;4173183;28;20060;-72
2020/12/03 05:27:29;;;;;;;18.73;11.73;;;6.00;99.90;;;;;;4175791;28;20025;-72
2020/12/03 05:29:29;;;;;;;18.35;11.38;;;6.10;99.90;;;;;;4175332;28;20098;-72
2020/12/03 05:31:36;;;;;;;16.50;10.07;;;6.10;99.90;;;;;;4175486;28;20464;-72
2020/12/03 05:33:36;;;;;;;20.27;11.50;;;6.10;99.90;;;;;;4157893;28;20025;-71
2020/12/03 05:35:38;;;;;;;18.98;11.57;;;6.10;99.90;;;;;;4173672;28;20040;-71
2020/12/03 05:37:40;;;;;;;20.52;12.27;;;6.10;99.90;;;;;;4175377;28;20435;-71
2020/12/03 05:39:45;;;;;;;19.80;11.63;;;6.10;99.90;;;;;;4173742;28;20040;-71
2020/12/03 05:41:52;;;;;;;18.45;11.68;;;6.10;99.90;;;;;;4173198;28;20045;-71
2020/12/03 05:43:53;;;;;;;22.17;12.73;;;6.10;99.90;;;;;;4173984;28;20049;-72
2020/12/03 05:45:55;;;;;;;19.27;11.32;;;6.10;99.90;;;;;;4175304;28;20384;-73
2020/12/03 05:47:58;;;;;;;20.83;10.88;;;6.10;99.90;;;;;;4173461;28;20467;-73
2020/12/03 05:49:59;;;;;;;;;;;6.10;99.90;;;;;;4174528;28;20029;-73
2020/12/03 05:52:06;;;;;;;21.30;11.93;;;6.10;99.90;;;;;;4173394;28;19916;-73
2020/12/03 05:54:08;;;;;;;19.25;11.60;;;6.10;99.90;;;;;;4174016;28;20033;-73
2020/12/03 05:56:19;;;;;;;17.15;10.48;;;6.10;99.90;;;;;;4175093;28;20041;-73
2020/12/03 05:58:29;;;;;;;19.67;11.50;;;6.10;99.90;;;;;;4173039;28;20055;-72
2020/12/03 06:00:30;;;;;;;18.38;11.32;;;6.10;99.90;;;;;;4173441;28;20033;-72
2020/12/03 06:02:42;;;;;;;22.48;12.65;;;6.10;99.90;;;;;;4160231;28;20116;-72
2020/12/03 06:04:56;;;;;;;19.77;11.23;;;6.00;99.90;;;;;;4145430;28;20632;-72
2020/12/03 06:07:13;;;;;;;18.27;10.85;;;6.00;99.90;;;;;;4148745;28;20034;-72
2020/12/03 06:09:31;;;;;;;16.65;10.70;;;6.00;99.90;;;;;;4174594;28;20033;-72
2020/12/03 06:11:47;;;;;;;20.23;11.50;;;6.00;99.90;;;;;;4176629;28;20037;-72
2020/12/03 06:14:15;;;;;;;22.45;12.43;;;6.00;99.90;;;;;;4169370;28;20033;-72
2020/12/03 06:16:26;;;;;;;20.00;11.18;;;6.00;99.90;;;;;;4175961;28;20041;-72
2020/12/03 06:18:54;;;;;;;18.77;11.20;;;5.90;99.90;;;;;;4167783;28;20033;-72
2020/12/03 06:21:01;;;;;;;21.35;11.38;;;5.90;99.90;;;;;;4175434;28;20063;-72
2020/12/03 06:23:21;;;;;;;20.20;11.40;;;6.00;99.90;;;;;;4158766;28;20022;-73
2020/12/03 06:25:54;;;;;;;16.75;10.25;;;6.00;99.90;;;;;;4167563;28;20045;-72
2020/12/03 06:28:32;;;;;;;18.98;10.55;;;6.00;99.90;;;;;;4177667;28;20250;-73
2020/12/03 06:30:57;;;;;;;15.75;10.15;;;6.00;99.90;;;;;;4154227;28;20080;-72
2020/12/03 06:33:29;;;;;;;15.57;9.55;;;5.90;99.90;;;;;;4175966;28;20484;-72
2020/12/03 06:35:38;;;;;;;16.42;10.07;;;6.00;99.90;;;;;;4159429;28;20440;-72
2020/12/03 06:38:07;;;;;;;18.02;10.00;;;6.00;99.90;;;;;;4145050;28;20063;-71
2020/12/03 06:40:20;;;;;;;16.55;10.02;;;6.00;99.90;;;;;;4171401;28;20037;-73
2020/12/03 06:42:42;;;;;;;15.93;9.85;;;6.00;99.90;;;;;;4177088;28;20033;-72
2020/12/03 06:44:58;;;;;;;15.80;10.30;;;6.00;99.90;;;;;;4176506;28;20438;-73
2020/12/03 06:47:38;;;;;;;18.00;10.18;;;6.00;99.90;;;;;;4175804;28;20478;-72
2020/12/03 06:50:18;;;;;;;17.60;9.38;;;6.00;99.90;;;;;;4175509;28;20067;-72
2020/12/03 06:53:08;;;;;;;14.38;8.55;;;6.00;99.90;;;;;;4173139;28;20033;-72
2020/12/03 06:55:46;;;;;;;13.32;8.50;;;6.00;99.90;;;;;;4158220;28;20159;-72
2020/12/03 06:57:55;;;;;;;14.07;8.68;;;6.00;99.90;;;;;;4176686;28;20628;-72
2020/12/03 07:00:08;;;;;;;17.63;8.70;;;5.90;99.90;;;;;;4176651;28;20029;-73
2020/12/03 07:02:12;;;;;;;;;;;5.80;99.90;;;;;;4176112;28;20079;-72
2020/12/03 07:04:32;;;;;;;;;;;5.80;99.90;;;;;;4177948;28;19912;-72
2020/12/03 07:06:45;;;;;;;12.90;7.85;;;5.80;99.90;;;;;;4175404;28;19909;-72
2020/12/03 07:09:28;;;;;;;12.57;8.07;;;5.80;99.90;;;;;;4158980;28;20478;-72
2020/12/03 07:11:41;;;;;;;13.18;7.95;;;5.80;99.90;;;;;;4160271;28;20664;-72
2020/12/03 07:14:19;;;;;;;13.25;8.20;;;5.80;99.90;;;;;;4159004;28;20037;-72
2020/12/03 07:17:16;;;;;;;15.18;8.55;;;5.80;99.90;;;;;;4161816;28;20037;-75
2020/12/03 07:19:37;;;;;;;13.77;8.20;;;5.80;99.90;;;;;;4097753;28;20046;-75
2020/12/03 07:22:09;;;;;;;12.52;7.65;;;5.80;99.90;;;;;;4122618;28;20061;-75
2020/12/03 07:24:18;;;;;;;13.88;8.05;;;5.70;99.90;;;;;;4142035;28;20093;-75
2020/12/03 07:26:36;;;;;;;12.95;7.88;;;5.70;99.90;;;;;;4156475;28;20030;-75
2020/12/03 07:28:38;;;;;;;13.48;7.75;;;5.70;99.90;;;;;;4173800;28;20033;-75
2020/12/03 07:30:56;;;;;;;14.38;7.80;;;5.70;99.90;;;;;;4176871;28;20431;-75
2020/12/03 07:33:03;;;;;;;11.55;7.32;;;5.60;99.90;;;;;;4159583;28;20021;-75
2020/12/03 07:35:24;;;;;;;15.82;8.13;;;5.60;99.90;;;;;;4172930;28;20035;-75
2020/12/03 07:37:42;;;;;;;15.32;8.43;;;5.60;99.90;;;;;;4173523;28;20053;-75
2020/12/03 07:39:47;;;;;;;12.57;6.90;;;5.60;99.90;;;;;;4173243;28;20207;-75
2020/12/03 07:41:51;;;;;;;14.48;7.63;;;5.60;99.90;;;;;;4154997;28;20037;-75
2020/12/03 07:44:15;;;;;;;11.88;7.13;;;5.50;99.90;;;;;;4158669;28;20129;-75
2020/12/03 07:46:27;;;;;;;11.52;7.22;;;5.60;99.90;;;;;;4171514;28;20040;-75
2020/12/03 07:48:31;;;;;;;13.27;7.57;;;5.50;99.90;;;;;;4175078;28;20025;-75
2020/12/03 07:50:44;;;;;;;10.90;6.93;;;5.50;99.90;;;;;;4176228;28;20033;-75
2020/12/03 07:53:04;;;;;;;13.32;7.22;;;5.50;99.90;;;;;;4172862;28;20056;-75
2020/12/03 07:55:26;;;;;;;11.55;6.95;;;5.50;99.90;;;;;;4157809;28;20397;-75
2020/12/03 07:57:33;;;;;;;11.75;6.78;;;5.50;99.90;;;;;;4173888;28;20114;-75
2020/12/03 07:59:37;;;;;;;12.82;7.90;;;5.50;99.90;;;;;;4175160;28;20033;-75
2020/12/03 08:01:38;;;;;;;13.32;7.53;;;5.50;99.90;;;;;;4174006;28;20120;-74
2020/12/03 08:03:47;;;;;;;11.23;6.70;;;5.50;99.90;;;;;;4175103;28;20142;-75
2020/12/03 08:05:53;;;;;;;11.25;7.25;;;5.50;99.90;;;;;;4173760;28;20041;-74
2020/12/03 08:07:54;;;;;;;12.38;7.18;;;5.50;99.90;;;;;;4174827;28;20434;-74
2020/12/03 08:09:55;;;;;;;12.48;7.07;;;5.50;99.90;;;;;;4174276;28;20128;-73
2020/12/03 08:11:58;;;;;;;12.95;6.70;;;5.50;99.90;;;;;;4174678;28;20025;-74
2020/12/03 08:13:59;;;;;;;11.68;7.18;;;5.50;99.90;;;;;;4174148;28;20029;-74
2020/12/03 08:16:03;;;;;;;11.40;6.82;;;5.40;99.90;;;;;;4176170;28;20025;-74
2020/12/03 08:18:04;;;;;;;10.13;6.88;;;5.50;99.90;;;;;;4175560;28;20548;-74
2020/12/03 08:20:06;;;;;;;11.38;7.32;;;5.40;99.90;;;;;;4175923;28;20378;-75
2020/12/03 08:22:24;;;;;;;13.53;7.67;;;5.40;99.90;;;;;;4176030;28;20112;-72
2020/12/03 08:24:30;;;;;;;11.40;7.07;;;5.40;99.90;;;;;;4157609;28;20038;-72
2020/12/03 08:26:31;;;;;;;12.65;7.40;;;5.40;99.90;;;;;;4173660;28;20032;-72
2020/12/03 08:28:32;;;;;;;12.32;7.38;;;5.40;99.90;;;;;;4175971;28;20021;-72
2020/12/03 08:30:37;;;;;;;13.32;7.82;;;5.40;99.90;;;;;;4174149;28;20489;-72
2020/12/03 08:33:12;;;;;;;15.10;7.57;;;5.40;99.90;;;;;;4176088;28;20040;-72
2020/12/03 08:35:13;;;;;;;13.10;7.47;;;5.30;99.90;;;;;;4158795;28;20037;-72
2020/12/03 08:37:17;;;;;;;;;;;5.30;99.90;;;;;;4147928;28;20469;-72
2020/12/03 08:39:18;;;;;;;13.48;7.93;;;5.40;99.90;;;;;;4173726;28;19917;-72
2020/12/03 08:41:21;;;;;;;14.68;8.73;;;5.30;99.90;;;;;;4175675;28;20037;-72
2020/12/03 08:43:23;;;;;;;16.10;8.93;;;5.30;99.90;;;;;;4152206;28;20049;-72
2020/12/03 08:45:25;;;;;;;14.53;8.27;;;5.20;99.90;;;;;;4172034;28;20424;-72
2020/12/03 08:47:41;;;;;;;13.55;8.40;;;5.20;99.90;;;;;;4174692;28;20067;-72
2020/12/03 08:49:43;;;;;;;15.23;8.30;;;5.20;99.90;;;;;;4173897;28;20033;-72
2020/12/03 08:51:51;;;;;;;16.40;8.10;;;5.30;99.90;;;;;;4157107;28;20076;-72
2020/12/03 08:53:52;;;;;;;18.70;8.73;;;5.30;99.90;;;;;;4171996;28;20453;-72
2020/12/03 08:55:52;;;;;;;12.65;7.93;;;5.20;99.90;;;;;;4173803;28;20120;-72
2020/12/03 08:57:57;;;;;;;15.82;9.10;;;5.30;99.90;;;;;;4174231;28;20033;-72
2020/12/03 08:59:59;;;;;;;13.35;8.32;;;5.20;99.90;;;;;;4173308;28;20033;-72
2020/12/03 09:02:06;;;;;;;;;;;5.30;99.90;;;;;;4174348;28;20048;-73
2020/12/03 09:04:08;;;;;;;12.50;7.65;;;5.30;99.90;;;;;;4174570;28;20282;-72
2020/12/03 09:06:13;;;;;;;15.38;8.20;;;5.30;99.90;;;;;;4174476;28;20037;-72
2020/12/03 09:08:19;;;;;;;14.07;8.15;;;5.30;99.90;;;;;;4173616;28;20044;-72
2020/12/03 09:10:21;;;;;;;12.50;7.82;;;5.30;99.90;;;;;;4172969;28;20033;-73
2020/12/03 09:12:28;;;;;;;14.20;8.68;;;5.30;99.90;;;;;;4175415;28;20029;-72
2020/12/03 09:14:33;;;;;;;16.33;9.20;;;5.30;99.90;;;;;;4188469;23;20032;-71
2020/12/03 09:16:36;;;;;;;15.57;7.50;;;5.30;99.90;;;;;;4165281;28;20032;-72
2020/12/03 09:18:44;;;;;;;14.40;8.20;;;5.30;99.90;;;;;;4152914;23;20181;-86
2020/12/03 09:20:48;;;;;;;16.38;8.55;;;5.30;99.90;;;;;;4122122;28;20033;-86
2020/12/03 09:22:49;;;;;;;13.50;7.78;;;5.30;99.90;;;;;;4128387;28;20037;-86
2020/12/03 09:24:51;;;;;;;15.25;8.50;;;5.40;99.90;;;;;;4144790;28;20413;-86
2020/12/03 09:27:02;;;;;;;16.27;8.83;;;5.40;99.90;;;;;;4128317;28;20054;-87
2020/12/03 09:29:04;;;;;;;15.52;9.32;;;5.30;99.90;;;;;;4133934;23;20069;-72
2020/12/03 09:31:04;;;;;;;15.75;9.52;;;5.30;99.90;;;;;;4157155;28;20030;-72
2020/12/03 09:33:10;;;;;;;15.93;9.05;;;5.40;99.90;;;;;;4155151;28;20044;-73
2020/12/03 09:35:12;;;;;;;16.92;9.88;;;5.40;99.90;;;;;;4158042;28;20124;-72
2020/12/03 09:37:16;;;;;;;15.90;9.15;;;5.30;99.90;;;;;;4142556;28;20067;-72
2020/12/03 09:39:17;;;;;;;;;;;5.30;99.90;;;;;;4160314;28;20033;-72
2020/12/03 09:41:22;;;;;;;16.65;10.02;;;5.30;99.90;;;;;;4175022;28;19947;-72
2020/12/03 09:43:23;;;;;;;17.00;10.00;;;5.30;99.90;;;;;;4134595;28;20033;-73
2020/12/03 09:45:31;;;;;;;14.40;9.05;;;5.30;99.90;;;;;;4162416;28;20037;-72
2020/12/03 09:47:33;;;;;;;16.00;9.70;;;5.30;99.90;;;;;;4163149;28;20037;-73
2020/12/03 09:49:34;;;;;;;17.48;9.75;;;5.40;99.90;;;;;;4163140;28;20125;-72
2020/12/03 09:51:34;;;;;;;17.02;10.00;;;5.30;99.90;;;;;;4161698;28;20041;-72
2020/12/03 09:53:36;;;;;;;17.98;9.75;;;5.40;99.90;;;;;;4161774;28;20033;-72
2020/12/03 09:55:36;;;;;;;14.05;8.95;;;5.40;99.90;;;;;;4161851;28;20457;-73
2020/12/03 09:57:38;;;;;;;17.92;9.27;;;5.40;99.90;;;;;;4163306;28;20112;-72
2020/12/03 09:59:41;;;;;;;16.65;8.77;;;5.40;99.90;;;;;;4161830;28;20030;-73
2020/12/03 10:02:09;;;;;;;18.90;9.75;;;5.40;99.90;;;;;;4155121;28;20536;-73
2020/12/03 10:05:00;;;;;;;14.52;8.93;;;5.40;99.90;;;;;;4160549;28;20045;-72
2020/12/03 10:07:32;;;;;;;18.65;9.60;;;5.40;99.90;;;;;;4159700;28;20045;-73
2020/12/03 10:10:10;;;;;;;15.50;9.00;;;5.40;99.90;;;;;;4150061;28;20061;-73
2020/12/03 10:12:29;;;;;;;13.05;8.30;;;5.40;99.90;;;;;;4162270;28;20032;-73
2020/12/03 10:14:33;;;;;;;16.08;10.02;;;5.40;99.90;;;;;;4158930;28;20029;-73
2020/12/03 10:16:36;;;;;;;15.43;9.55;;;5.40;99.90;;;;;;4144827;28;20390;-72
2020/12/03 10:18:48;;;;;;;15.18;9.10;;;5.40;99.90;;;;;;4162390;28;20061;-73
2020/12/03 10:20:51;;;;;;;14.75;9.00;;;5.40;99.90;;;;;;4160903;28;20108;-73
2020/12/03 10:23:15;;;;;;;16.13;9.57;;;5.40;99.90;;;;;;4163051;28;20034;-72
2020/12/03 10:25:17;;;;;;;13.52;9.10;;;5.40;99.90;;;;;;4161692;28;20029;-72
2020/12/03 10:27:25;;;;;;;15.75;9.52;;;5.50;99.90;;;;;;4161525;28;20018;-72
2020/12/03 10:29:32;;;;;;;16.05;9.95;;;5.50;99.90;;;;;;4160932;28;20033;-77
2020/12/03 10:31:35;;;;;;;15.27;9.20;;;5.50;99.90;;;;;;4162881;28;20026;-72
2020/12/03 10:33:38;;;;;;;15.55;9.25;;;5.40;99.90;;;;;;4162371;28;20488;-73
2020/12/03 10:35:47;;;;;;;15.18;9.52;;;5.50;99.90;;;;;;4160793;28;20064;-72
2020/12/03 10:37:54;;;;;;;18.45;10.38;;;5.50;99.90;;;;;;4162648;28;20529;-72
2020/12/03 10:40:01;;;;;;;17.67;10.05;;;5.50;99.90;;;;;;4162745;28;20049;-72
2020/12/03 10:42:07;;;;;;;19.23;9.75;;;5.40;99.90;;;;;;4162237;28;20073;-72
2020/12/03 10:44:15;;;;;;;16.85;9.68;;;5.40;99.90;;;;;;4162468;28;20041;-73
2020/12/03 10:46:22;;;;;;;18.80;11.35;;;5.40;99.90;;;;;;4162630;28;20068;-72
2020/12/03 10:48:31;;;;;;;19.65;10.93;;;5.40;99.90;;;;;;4162880;28;20041;-72
2020/12/03 10:51:07;;;;;;;20.52;10.55;;;5.40;99.90;;;;;;4162647;28;20099;-72
2020/12/03 10:53:07;;;;;;;18.17;10.82;;;5.40;99.90;;;;;;4146539;28;20025;-72
2020/12/03 10:55:09;;;;;;;18.52;10.15;;;5.40;99.90;;;;;;4160169;28;20107;-72
2020/12/03 10:57:22;;;;;;;15.95;9.48;;;5.40;99.90;;;;;;4162436;28;20110;-72
2020/12/03 10:59:36;;;;;;;16.98;9.57;;;5.40;99.90;;;;;;4161107;28;20030;-73